createdAt,value
2023-09-21T00:01:58.305Z,17.15
2023-09-21T00:04:24.682Z,17.13
2023-09-21T00:06:50.989Z,17.17
2023-09-21T00:09:17.371Z,17.11
2023-09-21T00:11:43.850Z,17.16
2023-09-21T00:14:10.192Z,17.16
2023-09-21T00:16:36.590Z,17.07
2023-09-21T00:19:02.931Z,17.09
2023-09-21T00:21:29.200Z,17.13
2023-09-21T00:23:55.629Z,17.21
2023-09-21T00:26:21.948Z,17.27
2023-09-21T00:28:48.273Z,17.25
2023-09-21T00:31:14.647Z,17.26
2023-09-21T00:33:41.001Z,17.22
2023-09-21T00:36:07.384Z,17.23
2023-09-21T00:38:33.705Z,17.25
2023-09-21T00:41:00.085Z,17.27
2023-09-21T00:43:26.460Z,17.26
2023-09-21T00:45:52.836Z,17.24
2023-09-21T00:48:19.274Z,17.16
2023-09-21T00:50:45.734Z,17.04
2023-09-21T00:53:12.095Z,17.03
2023-09-21T00:55:38.415Z,17.05
2023-09-21T00:58:04.760Z,17.03
2023-09-21T01:00:31.077Z,16.97
2023-09-21T01:02:57.555Z,16.98
2023-09-21T01:05:23.963Z,16.87
2023-09-21T01:07:50.300Z,16.90
2023-09-21T01:10:16.711Z,16.90
2023-09-21T01:12:43.021Z,16.88
2023-09-21T01:15:09.367Z,16.82
2023-09-21T01:17:35.815Z,16.80
2023-09-21T01:20:02.235Z,16.74
2023-09-21T01:22:28.668Z,16.69
2023-09-21T01:24:54.980Z,16.69
2023-09-21T01:27:21.342Z,16.66
2023-09-21T01:29:48.018Z,16.63
2023-09-21T01:32:14.506Z,16.58
2023-09-21T01:34:40.852Z,16.55
2023-09-21T01:37:07.209Z,16.58
2023-09-21T01:39:33.544Z,16.53
2023-09-21T01:42:00.000Z,16.44
2023-09-21T01:44:26.473Z,16.45
2023-09-21T01:46:52.858Z,16.36
2023-09-21T01:49:19.229Z,16.36
2023-09-21T01:51:45.640Z,16.38
2023-09-21T01:54:11.994Z,16.34
2023-09-21T01:56:38.374Z,16.33
2023-09-21T01:59:04.857Z,16.35
2023-09-21T02:01:31.187Z,16.36
2023-09-21T02:03:57.595Z,16.35
2023-09-21T02:06:24.140Z,16.31
2023-09-21T02:08:50.537Z,16.29
2023-09-21T02:11:16.986Z,16.30
2023-09-21T02:13:43.393Z,16.34
2023-09-21T02:16:10.074Z,16.37
2023-09-21T02:18:36.864Z,16.40
2023-09-21T02:21:03.289Z,16.37
2023-09-21T02:23:29.598Z,16.34
2023-09-21T02:25:56.009Z,16.13
2023-09-21T02:28:22.656Z,15.99
2023-09-21T02:30:49.094Z,16.01
2023-09-21T02:33:15.751Z,16.07
2023-09-21T02:35:42.374Z,16.17
2023-09-21T02:38:08.932Z,16.18
2023-09-21T02:40:35.340Z,16.22
2023-09-21T02:43:01.731Z,16.37
2023-09-21T02:45:28.025Z,16.47
2023-09-21T02:47:54.455Z,16.49
2023-09-21T02:50:20.858Z,16.52
2023-09-21T02:52:47.204Z,16.56
2023-09-21T02:55:13.754Z,16.62
2023-09-21T02:57:40.121Z,16.65
2023-09-21T03:00:06.422Z,16.76
2023-09-21T03:02:32.816Z,16.76
2023-09-21T03:04:59.221Z,16.79
2023-09-21T03:07:25.502Z,16.82
2023-09-21T03:09:51.859Z,16.92
2023-09-21T03:12:18.260Z,16.97
2023-09-21T03:14:44.629Z,16.99
2023-09-21T03:17:10.975Z,17.05
2023-09-21T03:19:37.324Z,17.10
2023-09-21T03:22:03.612Z,17.11
2023-09-21T03:24:30.079Z,17.09
2023-09-21T03:26:56.485Z,17.10
2023-09-21T03:29:22.766Z,17.11
2023-09-21T03:31:49.093Z,17.10
2023-09-21T03:34:15.562Z,17.05
2023-09-21T03:36:41.874Z,17.00
2023-09-21T03:39:08.239Z,16.99
2023-09-21T03:41:35.742Z,17.01
2023-09-21T03:44:03.002Z,16.96
2023-09-21T03:46:29.746Z,16.90
2023-09-21T03:48:56.258Z,16.88
2023-09-21T03:51:22.664Z,16.90
2023-09-21T03:53:49.076Z,16.93
2023-09-21T03:56:15.465Z,16.97
2023-09-21T03:58:42.037Z,16.97
2023-09-21T04:01:08.499Z,16.99
2023-09-21T04:03:35.004Z,16.99
2023-09-21T04:06:01.441Z,16.98
2023-09-21T04:08:27.856Z,16.98
2023-09-21T04:10:54.143Z,16.95
2023-09-21T04:13:20.474Z,16.94
2023-09-21T04:15:46.802Z,16.92
2023-09-21T04:18:13.194Z,16.88
2023-09-21T04:20:39.537Z,16.87
2023-09-21T04:23:05.908Z,16.85
2023-09-21T04:25:32.228Z,16.87
2023-09-21T04:27:58.561Z,16.84
2023-09-21T04:30:24.977Z,16.83
2023-09-21T04:32:51.484Z,16.82
2023-09-21T04:35:17.960Z,16.74
2023-09-21T04:37:44.288Z,16.69
2023-09-21T04:40:10.627Z,16.66
2023-09-21T04:42:36.944Z,16.59
2023-09-21T04:45:03.424Z,16.55
2023-09-21T04:47:29.836Z,16.50
2023-09-21T04:49:57.569Z,16.46
2023-09-21T04:52:24.362Z,16.44
2023-09-21T04:54:50.782Z,16.39
2023-09-21T04:57:17.092Z,16.30
2023-09-21T04:59:43.452Z,16.25
2023-09-21T05:02:09.913Z,16.18
2023-09-21T05:04:36.212Z,16.11
2023-09-21T05:07:02.691Z,16.12
2023-09-21T05:09:29.089Z,16.08
2023-09-21T05:11:55.486Z,16.03
2023-09-21T05:14:21.909Z,16.00
2023-09-21T05:16:48.242Z,15.97
2023-09-21T05:19:14.507Z,15.99
2023-09-21T05:21:40.895Z,15.98
2023-09-21T05:24:07.295Z,15.96
2023-09-21T05:26:33.644Z,15.94
2023-09-21T05:29:01.116Z,15.95
2023-09-21T05:31:27.484Z,16.01
2023-09-21T05:33:53.964Z,16.06
2023-09-21T05:36:20.575Z,16.12
2023-09-21T05:38:46.965Z,16.13
2023-09-21T05:41:13.265Z,16.16
2023-09-21T05:43:39.697Z,16.16
2023-09-21T05:46:06.063Z,16.17
2023-09-21T05:48:32.465Z,16.20
2023-09-21T05:50:59.071Z,16.29
2023-09-21T05:53:25.423Z,16.30
2023-09-21T05:55:51.708Z,16.33
2023-09-21T05:58:18.013Z,16.53
2023-09-21T06:00:44.337Z,16.72
2023-09-21T06:03:11.011Z,16.83
2023-09-21T06:05:37.602Z,16.85
2023-09-21T06:08:04.102Z,16.90
2023-09-21T06:10:30.369Z,16.95
2023-09-21T06:12:56.689Z,17.07
2023-09-21T06:15:23.077Z,17.13
2023-09-21T06:17:49.442Z,17.19
2023-09-21T06:20:15.851Z,17.32
2023-09-21T06:22:42.220Z,17.44
2023-09-21T06:25:08.518Z,17.48
2023-09-21T06:27:34.844Z,17.61
2023-09-21T06:30:01.222Z,17.75
2023-09-21T06:32:27.619Z,17.88
2023-09-21T06:34:54.592Z,17.96
2023-09-21T06:37:20.989Z,18.00
2023-09-21T06:39:47.267Z,18.01
2023-09-21T06:42:13.603Z,17.98
2023-09-21T06:44:39.961Z,17.88
2023-09-21T06:47:06.273Z,17.86
2023-09-21T06:49:32.697Z,17.81
2023-09-21T06:51:59.008Z,17.73
2023-09-21T06:54:25.369Z,17.62
2023-09-21T06:56:51.741Z,17.55
2023-09-21T06:59:18.080Z,17.51
2023-09-21T07:01:44.349Z,17.49
2023-09-21T07:04:10.891Z,17.47
2023-09-21T07:06:37.361Z,17.59
2023-09-21T07:09:03.698Z,17.61
2023-09-21T07:11:30.081Z,17.53
2023-09-21T07:13:56.402Z,17.60
2023-09-21T07:16:22.747Z,17.59
2023-09-21T07:18:49.211Z,17.57
2023-09-21T07:21:15.607Z,17.62
2023-09-21T07:23:41.933Z,17.73
2023-09-21T07:26:08.324Z,17.83
2023-09-21T07:28:34.653Z,17.97
2023-09-21T07:31:00.907Z,18.13
2023-09-21T07:33:27.358Z,18.27
2023-09-21T07:35:53.765Z,18.42
2023-09-21T07:38:20.076Z,18.47
2023-09-21T07:40:46.503Z,18.51
2023-09-21T07:43:12.858Z,18.52
2023-09-21T07:45:39.177Z,18.53
2023-09-21T07:48:05.688Z,18.61
2023-09-21T07:50:32.278Z,18.63
2023-09-21T07:52:58.605Z,18.70
2023-09-21T07:55:25.011Z,18.72
2023-09-21T07:57:51.387Z,18.71
2023-09-21T08:00:17.694Z,18.74
2023-09-21T08:02:44.189Z,18.80
2023-09-21T08:05:10.952Z,18.82
2023-09-21T08:07:37.724Z,18.78
2023-09-21T08:10:04.180Z,18.86
2023-09-21T08:12:30.827Z,18.85
2023-09-21T08:14:57.155Z,18.89
2023-09-21T08:17:23.635Z,19.05
2023-09-21T08:19:50.058Z,19.19
2023-09-21T08:22:16.359Z,19.28
2023-09-21T08:24:42.726Z,19.35
2023-09-21T08:27:09.430Z,19.24
2023-09-21T08:29:35.757Z,19.10
2023-09-21T08:32:02.194Z,19.36
2023-09-21T08:34:28.808Z,19.57
2023-09-21T08:36:55.107Z,19.65
2023-09-21T08:39:21.556Z,19.81
2023-09-21T08:41:47.953Z,19.78
2023-09-21T08:44:14.240Z,19.97
2023-09-21T08:46:40.670Z,20.20
2023-09-21T08:49:07.117Z,20.40
2023-09-21T08:51:33.523Z,20.53
2023-09-21T08:53:59.917Z,20.67
2023-09-21T08:56:26.367Z,20.77
2023-09-21T08:58:52.677Z,20.89
2023-09-21T09:01:19.062Z,20.81
2023-09-21T09:03:45.629Z,20.64
2023-09-21T09:06:12.054Z,20.69
2023-09-21T09:08:38.625Z,20.39
2023-09-21T09:11:05.056Z,20.65
2023-09-21T09:13:31.334Z,20.64
2023-09-21T09:15:57.771Z,20.64
2023-09-21T09:18:26.047Z,20.91
2023-09-21T09:20:52.436Z,21.13
2023-09-21T09:23:18.818Z,21.34
2023-09-21T09:25:45.262Z,21.51
2023-09-21T09:28:11.572Z,21.77
2023-09-21T09:30:37.947Z,21.90
2023-09-21T09:33:04.380Z,22.12
2023-09-21T09:35:30.714Z,22.18
2023-09-21T09:37:57.051Z,22.29
2023-09-21T09:40:23.373Z,22.32
2023-09-21T09:42:50.455Z,22.37
2023-09-21T09:45:17.244Z,22.57
2023-09-21T09:47:43.681Z,22.74
2023-09-21T09:50:09.983Z,22.89
2023-09-21T09:52:36.341Z,23.05
2023-09-21T09:55:02.684Z,23.02
2023-09-21T09:57:29.063Z,22.89
2023-09-21T09:59:55.439Z,23.05
2023-09-21T10:02:21.992Z,23.25
2023-09-21T10:04:48.339Z,23.41
2023-09-21T10:07:14.660Z,23.60
2023-09-21T10:09:41.020Z,23.73
2023-09-21T10:12:07.341Z,23.73
2023-09-21T10:14:33.719Z,23.71
2023-09-21T10:17:00.080Z,23.65
2023-09-21T10:19:26.459Z,23.44
2023-09-21T10:21:52.998Z,23.40
2023-09-21T10:24:19.415Z,23.53
2023-09-21T10:26:45.881Z,23.73
2023-09-21T10:29:12.193Z,23.88
2023-09-21T10:31:38.591Z,23.55
2023-09-21T10:34:04.908Z,23.55
2023-09-21T10:36:31.387Z,23.82
2023-09-21T10:38:57.820Z,23.93
2023-09-21T10:41:24.125Z,23.60
2023-09-21T10:43:50.451Z,23.45
2023-09-21T10:46:16.938Z,23.53
2023-09-21T10:48:43.505Z,23.65
2023-09-21T10:51:10.118Z,23.87
2023-09-21T10:53:36.431Z,24.36
2023-09-21T10:56:02.678Z,24.64
2023-09-21T10:58:29.100Z,24.90
2023-09-21T11:00:55.570Z,24.96
2023-09-21T11:03:22.060Z,25.12
2023-09-21T11:05:48.629Z,25.20
2023-09-21T11:08:15.032Z,25.14
2023-09-21T11:10:41.276Z,24.76
2023-09-21T11:13:08.281Z,24.86
2023-09-21T11:15:34.707Z,24.94
2023-09-21T11:18:01.224Z,24.97
2023-09-21T11:20:27.665Z,24.99
2023-09-21T11:22:54.038Z,25.01
2023-09-21T11:25:20.320Z,24.99
2023-09-21T11:27:46.701Z,24.93
2023-09-21T11:30:13.053Z,24.98
2023-09-21T11:32:39.372Z,25.02
2023-09-21T11:35:05.691Z,24.82
2023-09-21T11:37:32.012Z,24.84
2023-09-21T11:39:58.448Z,24.89
2023-09-21T11:42:24.867Z,24.88
2023-09-21T11:44:51.303Z,24.85
2023-09-21T11:47:17.757Z,24.81
2023-09-21T11:49:44.202Z,24.68
2023-09-21T11:52:10.626Z,24.57
2023-09-21T11:54:37.072Z,24.42
2023-09-21T11:57:03.532Z,24.56
2023-09-21T11:59:29.950Z,24.77
2023-09-21T12:01:58.676Z,24.93
2023-09-21T12:04:25.217Z,24.86
2023-09-21T12:06:51.643Z,24.80
2023-09-21T12:09:17.987Z,24.65
2023-09-21T12:11:44.433Z,24.45
2023-09-21T12:14:10.780Z,24.27
2023-09-21T12:16:37.094Z,24.19
2023-09-21T12:19:03.505Z,24.11
2023-09-21T12:21:29.941Z,24.01
2023-09-21T12:23:56.443Z,23.89
2023-09-21T12:26:22.927Z,23.72
2023-09-21T12:28:49.306Z,23.63
2023-09-21T12:31:15.778Z,23.38
2023-09-21T12:33:51.969Z,23.01
2023-09-21T12:36:30.368Z,23.11
2023-09-21T12:39:05.011Z,22.97
2023-09-21T12:41:31.411Z,23.09
2023-09-21T12:43:57.815Z,23.21
2023-09-21T12:46:24.272Z,23.19
2023-09-21T12:48:51.065Z,23.35
2023-09-21T12:51:17.600Z,23.58
2023-09-21T12:53:44.313Z,23.88
2023-09-21T12:56:11.203Z,24.12
2023-09-21T12:58:37.539Z,24.32
2023-09-21T13:01:03.919Z,24.51
2023-09-21T13:03:31.080Z,24.58
2023-09-21T13:05:57.559Z,24.62
2023-09-21T13:08:23.985Z,24.68
2023-09-21T13:10:50.360Z,24.71
2023-09-21T13:13:17.049Z,24.66
2023-09-21T13:15:43.543Z,24.66
2023-09-21T13:18:10.026Z,24.69
2023-09-21T13:20:36.453Z,24.71
2023-09-21T13:23:02.797Z,24.72
2023-09-21T13:25:29.283Z,24.70
2023-09-21T13:27:55.634Z,24.78
2023-09-21T13:30:22.117Z,24.65
2023-09-21T13:32:48.579Z,24.57
2023-09-21T13:35:14.935Z,24.48
2023-09-21T13:37:41.382Z,24.42
2023-09-21T13:40:07.766Z,24.18
2023-09-21T13:42:34.120Z,24.09
2023-09-21T13:45:00.524Z,23.84
2023-09-21T13:47:26.989Z,23.86
2023-09-21T13:49:53.413Z,23.82
2023-09-21T13:52:19.803Z,23.78
2023-09-21T13:54:46.209Z,23.74
2023-09-21T13:57:12.560Z,23.65
2023-09-21T13:59:38.897Z,23.55
2023-09-21T14:02:05.281Z,23.49
2023-09-21T14:04:31.869Z,23.47
2023-09-21T14:06:58.454Z,23.42
2023-09-21T14:09:24.863Z,23.29
2023-09-21T14:11:51.201Z,23.15
2023-09-21T14:14:17.606Z,23.12
2023-09-21T14:16:43.995Z,23.10
2023-09-21T14:19:10.333Z,23.06
2023-09-21T14:21:36.787Z,22.91
2023-09-21T14:24:03.218Z,22.81
2023-09-21T14:26:29.578Z,22.75
2023-09-21T14:28:55.896Z,22.65
2023-09-21T14:31:22.330Z,22.49
2023-09-21T14:33:49.466Z,22.44
2023-09-21T14:36:15.919Z,22.50
2023-09-21T14:38:42.510Z,22.44
2023-09-21T14:41:08.949Z,22.67
2023-09-21T14:43:35.349Z,22.68
2023-09-21T14:46:01.864Z,22.74
2023-09-21T14:48:28.345Z,22.80
2023-09-21T14:50:54.732Z,22.90
2023-09-21T14:53:21.064Z,22.93
2023-09-21T14:55:47.368Z,22.99
2023-09-21T14:58:13.830Z,22.96
2023-09-21T15:00:40.182Z,22.95
2023-09-21T15:03:06.754Z,23.07
2023-09-21T15:05:33.292Z,23.00
2023-09-21T15:08:13.048Z,22.97
2023-09-21T15:10:40.077Z,23.00
2023-09-21T15:13:06.439Z,23.03
2023-09-21T15:15:32.894Z,22.99
2023-09-21T15:17:59.462Z,22.95
2023-09-21T15:20:25.810Z,22.86
2023-09-21T15:22:52.141Z,22.72
2023-09-21T15:25:18.597Z,22.68
2023-09-21T15:27:45.006Z,22.64
2023-09-21T15:30:11.356Z,22.58
2023-09-21T15:32:37.865Z,22.50
2023-09-21T15:35:04.302Z,22.44
2023-09-21T15:37:30.608Z,22.36
2023-09-21T15:39:57.011Z,22.31
2023-09-21T15:42:23.465Z,22.27
2023-09-21T15:44:49.793Z,22.29
2023-09-21T15:47:16.125Z,22.24
2023-09-21T15:49:42.572Z,22.25
2023-09-21T15:52:08.964Z,22.24
2023-09-21T15:54:35.349Z,22.27
2023-09-21T15:57:01.785Z,22.33
2023-09-21T15:59:28.141Z,22.37
2023-09-21T16:01:54.629Z,22.38
2023-09-21T16:04:21.158Z,22.39
2023-09-21T16:06:47.580Z,22.29
2023-09-21T16:09:14.051Z,22.16
2023-09-21T16:11:40.393Z,22.14
2023-09-21T16:14:06.700Z,22.09
2023-09-21T16:16:33.062Z,22.02
2023-09-21T16:18:59.466Z,21.78
2023-09-21T16:21:25.839Z,21.83
2023-09-21T16:23:52.429Z,21.80
2023-09-21T16:26:18.877Z,21.77
2023-09-21T16:28:45.348Z,21.73
2023-09-21T16:31:11.776Z,21.69
2023-09-21T16:33:38.193Z,21.63
2023-09-21T16:36:04.547Z,21.55
2023-09-21T16:38:30.995Z,21.48
2023-09-21T16:40:57.740Z,21.42
2023-09-21T16:43:24.095Z,21.33
2023-09-21T16:45:50.642Z,21.24
2023-09-21T16:48:17.176Z,21.14
2023-09-21T16:50:43.660Z,21.04
2023-09-21T16:53:10.043Z,20.93
2023-09-21T16:55:36.381Z,20.85
2023-09-21T16:58:02.691Z,20.79
2023-09-21T17:00:29.152Z,20.72
2023-09-21T17:02:55.575Z,20.58
2023-09-21T17:05:21.893Z,20.45
2023-09-21T17:07:48.230Z,20.36
2023-09-21T17:10:14.624Z,20.32
2023-09-21T17:12:40.962Z,20.24
2023-09-21T17:15:07.385Z,20.20
2023-09-21T17:17:33.860Z,20.14
2023-09-21T17:20:00.262Z,20.07
2023-09-21T17:22:28.042Z,20.00
2023-09-21T17:24:54.631Z,19.86
2023-09-21T17:27:21.011Z,19.69
2023-09-21T17:29:47.516Z,19.59
2023-09-21T17:32:13.946Z,19.55
2023-09-21T17:34:40.294Z,19.53
2023-09-21T17:37:06.725Z,19.51
2023-09-21T17:39:33.100Z,19.42
2023-09-21T17:41:59.463Z,19.38
2023-09-21T17:44:25.789Z,19.30
2023-09-21T17:46:52.152Z,19.18
2023-09-21T17:49:18.512Z,19.02
2023-09-21T17:51:44.875Z,19.03
2023-09-21T17:54:11.426Z,18.93
2023-09-21T17:56:37.781Z,18.99
2023-09-21T17:59:04.102Z,19.04
2023-09-21T18:01:30.533Z,19.03
2023-09-21T18:03:58.179Z,19.02
2023-09-21T18:06:24.747Z,19.01
2023-09-21T18:08:51.217Z,18.87
2023-09-21T18:11:17.501Z,18.84
2023-09-21T18:13:43.926Z,18.85
2023-09-21T18:16:10.307Z,18.84
2023-09-21T18:18:36.623Z,18.83
2023-09-21T18:21:03.036Z,18.84
2023-09-21T18:23:29.457Z,18.82
2023-09-21T18:25:55.893Z,18.75
2023-09-21T18:28:22.924Z,18.68
2023-09-21T18:30:49.472Z,18.58
2023-09-21T18:33:15.907Z,18.57
2023-09-21T18:35:42.410Z,18.55
2023-09-21T18:38:08.813Z,18.61
2023-09-21T18:40:35.098Z,18.65
2023-09-21T18:43:01.525Z,18.70
2023-09-21T18:45:27.844Z,18.70
2023-09-21T18:47:54.203Z,18.69
2023-09-21T18:50:20.528Z,18.71
2023-09-21T18:52:46.843Z,18.71
2023-09-21T18:55:13.135Z,18.65
2023-09-21T18:57:39.458Z,18.63
2023-09-21T19:00:05.843Z,18.64
2023-09-21T19:02:32.209Z,18.61
2023-09-21T19:04:58.594Z,18.60
2023-09-21T19:07:24.930Z,18.59
2023-09-21T19:09:51.259Z,18.58
2023-09-21T19:12:17.614Z,18.64
2023-09-21T19:14:43.937Z,18.64
2023-09-21T19:17:10.270Z,18.71
2023-09-21T19:19:36.583Z,18.66
2023-09-21T19:22:02.924Z,18.53
2023-09-21T19:24:29.267Z,18.47
2023-09-21T19:26:55.753Z,18.44
2023-09-21T19:29:22.153Z,18.46
2023-09-21T19:31:48.429Z,18.40
2023-09-21T19:34:14.748Z,18.34
2023-09-21T19:36:41.112Z,18.38
2023-09-21T19:39:07.588Z,18.39
2023-09-21T19:41:34.012Z,18.41
2023-09-21T19:44:00.355Z,18.21
2023-09-21T19:46:26.765Z,18.25
2023-09-21T19:48:53.153Z,18.19
2023-09-21T19:51:19.659Z,18.13
2023-09-21T19:53:46.125Z,18.20
2023-09-21T19:56:12.669Z,18.26
2023-09-21T19:58:39.011Z,18.30
2023-09-21T20:01:05.321Z,18.31
2023-09-21T20:03:31.849Z,18.22
2023-09-21T20:05:58.290Z,18.27
2023-09-21T20:08:24.602Z,18.30
2023-09-21T20:10:52.766Z,18.31
2023-09-21T20:13:20.720Z,18.26
2023-09-21T20:15:47.074Z,18.17
2023-09-21T20:18:13.529Z,18.04
2023-09-21T20:20:39.977Z,17.69
2023-09-21T20:23:06.286Z,17.67
2023-09-21T20:25:32.679Z,17.47
2023-09-21T20:27:59.382Z,17.44
2023-09-21T20:30:25.759Z,17.30
2023-09-21T20:32:52.157Z,17.30
2023-09-21T20:35:18.584Z,17.24
2023-09-21T20:37:44.907Z,17.15
2023-09-21T20:40:11.274Z,17.14
2023-09-21T20:42:37.735Z,17.08
2023-09-21T20:45:04.145Z,17.04
2023-09-21T20:47:30.521Z,17.07
2023-09-21T20:49:56.919Z,17.02
2023-09-21T20:52:23.222Z,16.91
2023-09-21T20:54:49.673Z,16.86
2023-09-21T20:57:16.056Z,16.65
2023-09-21T20:59:42.374Z,16.35
2023-09-21T21:02:08.812Z,16.19
2023-09-21T21:04:35.178Z,16.22
2023-09-21T21:07:01.589Z,16.16
2023-09-21T21:09:28.029Z,16.16
2023-09-21T21:11:54.451Z,16.17
2023-09-21T21:14:20.787Z,16.17
2023-09-21T21:16:47.249Z,16.20
2023-09-21T21:19:13.669Z,16.18
2023-09-21T21:21:40.100Z,16.19
2023-09-21T21:24:06.626Z,16.18
2023-09-21T21:26:33.103Z,16.16
2023-09-21T21:28:59.460Z,16.13
2023-09-21T21:31:25.906Z,16.17
2023-09-21T21:33:52.424Z,16.13
2023-09-21T21:36:18.808Z,16.10
2023-09-21T21:38:45.210Z,16.07
2023-09-21T21:41:11.611Z,16.02
2023-09-21T21:43:40.282Z,15.98
2023-09-21T21:46:07.215Z,15.98
2023-09-21T21:48:33.701Z,15.98
2023-09-21T21:51:02.157Z,15.95
2023-09-21T21:53:28.570Z,15.97
2023-09-21T21:55:54.925Z,15.97
2023-09-21T21:58:21.245Z,15.91
2023-09-21T22:00:47.676Z,15.85
2023-09-21T22:03:14.191Z,15.94
2023-09-21T22:05:40.571Z,16.02
2023-09-21T22:08:06.911Z,15.99
2023-09-21T22:10:33.464Z,16.00
2023-09-21T22:12:59.873Z,15.99
2023-09-21T22:15:29.027Z,16.00
2023-09-21T22:17:56.823Z,16.01
2023-09-21T22:20:23.151Z,15.64
2023-09-21T22:22:49.471Z,15.47
2023-09-21T22:25:15.807Z,15.52
2023-09-21T22:27:42.212Z,15.53
2023-09-21T22:30:08.640Z,15.52
2023-09-21T22:32:35.001Z,15.56
2023-09-21T22:35:01.291Z,15.57
2023-09-21T22:37:27.700Z,15.59
2023-09-21T22:39:54.140Z,15.63
2023-09-21T22:42:21.804Z,15.63
2023-09-21T22:44:49.412Z,15.68
2023-09-21T22:47:15.742Z,15.69
2023-09-21T22:49:42.075Z,15.73
2023-09-21T22:52:08.432Z,15.68
2023-09-21T22:54:34.830Z,15.64
2023-09-21T22:57:01.163Z,15.65
2023-09-21T22:59:27.659Z,15.72
2023-09-21T23:01:54.067Z,15.76
2023-09-21T23:04:20.427Z,15.75
2023-09-21T23:06:47.009Z,15.74
2023-09-21T23:09:13.392Z,15.71
2023-09-21T23:11:39.687Z,15.69
2023-09-21T23:14:06.118Z,15.60
2023-09-21T23:16:32.513Z,15.48
2023-09-21T23:18:58.902Z,15.56
2023-09-21T23:21:25.307Z,15.08
2023-09-21T23:23:51.666Z,14.70
2023-09-21T23:26:17.996Z,14.69
2023-09-21T23:28:44.330Z,14.84
2023-09-21T23:31:10.711Z,14.76
2023-09-21T23:33:37.244Z,14.82
2023-09-21T23:36:03.775Z,14.71
2023-09-21T23:38:30.137Z,14.53
2023-09-21T23:40:56.460Z,14.35
2023-09-21T23:43:22.915Z,14.51
2023-09-21T23:45:49.305Z,14.62
2023-09-21T23:48:15.687Z,14.75
2023-09-21T23:50:42.146Z,14.85
2023-09-21T23:53:08.536Z,14.92
2023-09-21T23:55:34.875Z,14.95
2023-09-21T23:58:01.233Z,14.96
